Aviation Digital Data Service (ADDS)

Output produced by METARs form (0932 UTC 23 January 2019)
found at http://aviationweather.gov/metar/data/
 
METAR text: KGGG 230927Z AUTO 30015G20KT 10SM BKN008 BKN015 OVC070 02/02 A3002 RMK AO2 RAE20 PRESRR P0003 T00220022
Conditions at: KGGG (LONGVIEW , TX, US) observed 0927 UTC 23 January 2019
Temperature: 2.2°C (36°F)
Dewpoint: 2.2°C (36°F) [RH = 100%]
Pressure (altimeter): 30.02 inches Hg (1016.7 mb)
Winds: from the WNW (300 degrees) at 17 MPH (15 knots; 7.7 m/s)
gusting to 23 MPH (20 knots; 10.3 m/s)
Visibility: 10 or more miles (16+ km)
Ceiling: 800 feet AGL
Clouds: broken clouds at 800 feet AGL
broken clouds at 1500 feet AGL
overcast cloud deck at 7000 feet AGL
Weather: automated observation with no human augmentation;
there may or may not be significant weather present at this time

METAR text: KGGG 230923Z AUTO 31012KT 10SM SCT010 BKN015 OVC070 02/02 A3001 RMK AO2 RAE20 PRESRR P0003 T00220022
Conditions at: KGGG (LONGVIEW , TX, US) observed 0923 UTC 23 January 2019
Temperature: 2.2°C (36°F)
Dewpoint: 2.2°C (36°F) [RH = 100%]
Pressure (altimeter): 30.01 inches Hg (1016.3 mb)
Winds: from the NW (310 degrees) at 14 MPH (12 knots; 6.2 m/s)
Visibility: 10 or more miles (16+ km)
Ceiling: 1500 feet AGL
Clouds: scattered clouds at 1000 feet AGL
broken clouds at 1500 feet AGL
overcast cloud deck at 7000 feet AGL
Weather: automated observation with no human augmentation;
there may or may not be significant weather present at this time

METAR text: KGGG 230853Z AUTO 33013G21KT 10SM RA FEW010 BKN070 OVC090 02/02 A2999 RMK AO2 SLP156 P0031 60047 T00220022 58002
Conditions at: KGGG (LONGVIEW , TX, US) observed 0853 UTC 23 January 2019
Temperature: 2.2°C (36°F)
Dewpoint: 2.2°C (36°F) [RH = 100%]
Pressure (altimeter): 29.99 inches Hg (1015.7 mb)
[Sea-level pressure: 1015.6 mb]
Winds: from the NNW (330 degrees) at 15 MPH (13 knots; 6.7 m/s)
gusting to 24 MPH (21 knots; 10.8 m/s)
Visibility: 10 or more miles (16+ km)
Ceiling: 7000 feet AGL
Clouds: few clouds at 1000 feet AGL
broken clouds at 7000 feet AGL
overcast cloud deck at 9000 feet AGL
Weather: RA  (moderate rain)

METAR text: KGGG 230834Z AUTO 32015G21KT 8SM +RA SCT009 OVC047 02/02 A3003 RMK AO2 P0026 T00220022
Conditions at: KGGG (LONGVIEW , TX, US) observed 0834 UTC 23 January 2019
Temperature: 2.2°C (36°F)
Dewpoint: 2.2°C (36°F) [RH = 100%]
Pressure (altimeter): 30.03 inches Hg (1017.0 mb)
Winds: from the NW (320 degrees) at 17 MPH (15 knots; 7.7 m/s)
gusting to 24 MPH (21 knots; 10.8 m/s)
Visibility: 8 miles (13 km)
Ceiling: 4700 feet AGL
Clouds: scattered clouds at 900 feet AGL
overcast cloud deck at 4700 feet AGL
Weather: +RA  (heavy rain)

METAR text: KGGG 230753Z AUTO 32015G27KT 9SM +RA SCT048 OVC075 03/02 A3001 RMK AO2 PK WND 31029/0728 SLP161 P0009 T00280022
Conditions at: KGGG (LONGVIEW , TX, US) observed 0753 UTC 23 January 2019
Temperature: 2.8°C (37°F)
Dewpoint: 2.2°C (36°F) [RH = 96%]
Pressure (altimeter): 30.01 inches Hg (1016.3 mb)
[Sea-level pressure: 1016.1 mb]
Winds: from the NW (320 degrees) at 17 MPH (15 knots; 7.7 m/s)
gusting to 31 MPH (27 knots; 13.9 m/s)
Visibility: 9 miles (14 km)
Ceiling: 7500 feet AGL
Clouds: scattered clouds at 4800 feet AGL
overcast cloud deck at 7500 feet AGL
Weather: +RA  (heavy rain)

METAR text: KGGG 230737Z AUTO 32010G29KT 10SM -RA SCT015 OVC075 03/03 A3004 RMK AO2 PK WND 31029/0728 P0002 T00330028
Conditions at: KGGG (LONGVIEW , TX, US) observed 0737 UTC 23 January 2019
Temperature: 3.3°C (38°F)
Dewpoint: 2.8°C (37°F) [RH = 97%]
Pressure (altimeter): 30.04 inches Hg (1017.4 mb)
Winds: from the NW (320 degrees) at 12 MPH (10 knots; 5.1 m/s)
gusting to 33 MPH (29 knots; 14.9 m/s)
Visibility: 10 or more miles (16+ km)
Ceiling: 7500 feet AGL
Clouds: scattered clouds at 1500 feet AGL
overcast cloud deck at 7500 feet AGL
Weather: -RA  (light rain)

Forecast for: KGGG (LONGVIEW , TX, US)
Text: KGGG 230546Z 2306/2406 31018G28KT 6SM SHRA BR OVC006
Forecast period: 0600 to 0900 UTC 23 January 2019
Forecast type: FROM: standard forecast or significant change
Winds: from the NW (310 degrees) at 21 MPH (18 knots; 9.3 m/s)
gusting to 32 MPH (28 knots; 14.4 m/s)
Visibility: 6 miles (10 km)
Ceiling: 600 feet AGL
Clouds: overcast cloud deck at 600 feet AGL
Weather: SHRA BR  (rain showers, mist)
Text: FM230900 32015G24KT 5SM -RA BR OVC015
Forecast period: 0900 to 1300 UTC 23 January 2019
Forecast type: FROM: standard forecast or significant change
Winds: from the NW (320 degrees) at 17 MPH (15 knots; 7.7 m/s)
gusting to 28 MPH (24 knots; 12.3 m/s)
Visibility: 5 miles (8 km)
Ceiling: 1500 feet AGL
Clouds: overcast cloud deck at 1500 feet AGL
Weather: -RA BR  (light rain, mist)
Text: FM231300 33013G20KT P6SM OVC025
Forecast period: 1300 to 1500 UTC 23 January 2019
Forecast type: FROM: standard forecast or significant change
Winds: from the NNW (330 degrees) at 15 MPH (13 knots; 6.7 m/s)
gusting to 23 MPH (20 knots; 10.3 m/s)
Visibility: 6 or more miles 10+ km)
Ceiling: 2500 feet AGL
Clouds: overcast cloud deck at 2500 feet AGL
Weather: no significant weather forecast for this period
Text: FM231500 32015G25KT P6SM FEW025 BKN120
Forecast period: 1500 to 2100 UTC 23 January 2019
Forecast type: FROM: standard forecast or significant change
Winds: from the NW (320 degrees) at 17 MPH (15 knots; 7.7 m/s)
gusting to 29 MPH (25 knots; 12.9 m/s)
Visibility: 6 or more miles 10+ km)
Ceiling: 12000 feet AGL
Clouds: few clouds at 2500 feet AGL
broken clouds at 12000 feet AGL
Weather: no significant weather forecast for this period
Text: FM232100 32014G22KT P6SM SKC
Forecast period: 2100 UTC 23 January 2019 to 0000 UTC 24 January 2019
Forecast type: FROM: standard forecast or significant change
Winds: from the NW (320 degrees) at 16 MPH (14 knots; 7.2 m/s)
gusting to 25 MPH (22 knots; 11.3 m/s)
Visibility: 6 or more miles 10+ km)
Clouds: clear skies
Weather: no significant weather forecast for this period
Text: FM240000 30004KT P6SM SKC
Forecast period: 0000 to 0600 UTC 24 January 2019
Forecast type: FROM: standard forecast or significant change
Winds: from the WNW (300 degrees) at 5 MPH (4 knots; 2.1 m/s)
Visibility: 6 or more miles 10+ km)
Clouds: clear skies
Weather: no significant weather forecast for this period